Hlavní strana
METAR-TAF:

METAR-TAF

Letiště :

Aarhus, Dánsko

zeměpisná šířka: 56-18N, zeměpisná délka: 010-37E, výška: 23 m

Aktuální stav počasí

Zpráva byla vytvořena před 38 minutami, v 08:20 UTC
Severovýchodní vítr 8 kt
Teplota 20°C
Vlhkost vzduchu 46%
Tlak 1029 hPa
Viditelnost 10 km a více

METAR: EKAH 300820Z AUTO 04008KT 9999NDV NCD 20/08 Q1029

Čas: 10:58 (08:58 UTC)


TAF: chybějící

Stav a předpovědi počasí z více než 4 000 letišť (zprávy METAR a TAF).

Červené a žluté tečky na mapě představují dostupné meteorologické stanice.

Když kurzor umístíte na tečku, zobrazí se název stanice.

Pak kliknutím zobrazíte stav a předpověď počasí.

Chcete-li změnit mapu, kliknutím na zelené tlačítko se znaménkem +mapu přiblížíte, kliknutím na zelené tlačítko se znaménkem – mapu oddálíte a kliknutím na zelené šipky přejdete na sousední mapy.


METAR-TAF: